createdAt,value
2018-05-10T00:01:04.868Z,115.32
2018-05-10T00:02:09.977Z,72.07
2018-05-10T00:03:15.125Z,108.18
2018-05-10T00:04:20.235Z,52.78
2018-05-10T00:05:25.461Z,37.37
2018-05-10T00:06:30.591Z,37.23
2018-05-10T00:07:35.680Z,36.80
2018-05-10T00:08:40.866Z,33.05
2018-05-10T00:09:46.621Z,32.35
2018-05-10T00:10:51.830Z,31.58
2018-05-10T00:11:57.041Z,34.65
2018-05-10T00:13:02.266Z,32.13
2018-05-10T00:14:07.498Z,33.78
2018-05-10T00:15:12.678Z,31.00
2018-05-10T00:16:17.806Z,32.05
2018-05-10T00:17:22.921Z,31.60
2018-05-10T00:18:28.026Z,32.50
2018-05-10T00:19:33.135Z,31.27
2018-05-10T00:20:38.267Z,32.60
2018-05-10T00:21:43.394Z,34.00
2018-05-10T00:22:48.501Z,32.08
2018-05-10T00:23:53.896Z,32.70
2018-05-10T00:24:59.036Z,31.23
2018-05-10T00:26:04.162Z,30.60
2018-05-10T00:27:09.286Z,31.85
2018-05-10T00:28:14.540Z,32.80
2018-05-10T00:29:19.744Z,31.58
2018-05-10T00:30:25.256Z,31.45
2018-05-10T00:31:30.451Z,33.47
2018-05-10T00:32:35.669Z,31.70
2018-05-10T00:33:40.855Z,30.27
2018-05-10T00:34:46.628Z,31.10
2018-05-10T00:35:52.481Z,31.45
2018-05-10T00:36:57.679Z,32.05
2018-05-10T00:38:02.836Z,30.70
2018-05-10T00:39:07.948Z,30.88
2018-05-10T00:40:13.056Z,30.33
2018-05-10T00:41:18.148Z,30.52
2018-05-10T00:42:23.546Z,31.40
2018-05-10T00:43:28.667Z,31.25
2018-05-10T00:44:33.788Z,31.15
2018-05-10T00:45:38.955Z,29.33
2018-05-10T00:46:44.110Z,28.05
2018-05-10T00:47:49.295Z,29.48
2018-05-10T00:48:54.505Z,29.10
2018-05-10T00:49:59.684Z,30.02
2018-05-10T00:51:04.944Z,31.03
2018-05-10T00:52:10.160Z,30.65
2018-05-10T00:53:15.351Z,30.20
2018-05-10T00:54:24.935Z,28.42
2018-05-10T00:55:30.151Z,30.55
2018-05-10T00:56:35.339Z,28.87
2018-05-10T00:57:40.768Z,30.98
2018-05-10T00:58:46.667Z,29.98
2018-05-10T00:59:51.871Z,28.50
2018-05-10T01:00:57.055Z,29.15
2018-05-10T01:02:02.278Z,28.58
2018-05-10T01:03:07.568Z,29.50
2018-05-10T01:04:12.745Z,30.12
2018-05-10T01:05:18.023Z,29.37
2018-05-10T01:06:23.239Z,30.15
2018-05-10T01:07:28.455Z,29.95
2018-05-10T01:08:33.676Z,30.42
2018-05-10T01:09:38.843Z,28.55
2018-05-10T01:10:44.023Z,28.20
2018-05-10T01:11:49.255Z,30.58
2018-05-10T01:12:54.446Z,28.15
2018-05-10T01:13:59.890Z,27.58
2018-05-10T01:15:05.063Z,28.38
2018-05-10T01:16:10.237Z,27.50
2018-05-10T01:17:15.382Z,24.47
2018-05-10T01:18:20.500Z,26.80
2018-05-10T01:19:25.653Z,26.17
2018-05-10T01:20:31.110Z,25.12
2018-05-10T01:21:36.308Z,25.40
2018-05-10T01:22:41.450Z,27.92
2018-05-10T01:23:47.458Z,31.12
2018-05-10T01:24:52.631Z,32.33
2018-05-10T01:25:57.832Z,34.10
2018-05-10T01:27:03.032Z,32.95
2018-05-10T01:28:08.206Z,35.33
2018-05-10T01:29:13.389Z,35.50
2018-05-10T01:30:18.580Z,36.60
2018-05-10T01:31:23.776Z,38.60
2018-05-10T01:32:29.385Z,36.55
2018-05-10T01:33:34.732Z,39.63
2018-05-10T01:34:40.193Z,39.53
2018-05-10T01:35:50.830Z,41.17
2018-05-10T01:36:56.031Z,40.40
2018-05-10T01:38:01.283Z,41.17
2018-05-10T01:39:06.844Z,41.90
2018-05-10T01:40:12.030Z,43.28
2018-05-10T01:41:17.256Z,40.92
2018-05-10T01:42:22.475Z,41.75
2018-05-10T01:43:27.664Z,42.40
2018-05-10T01:44:32.892Z,41.58
2018-05-10T01:45:38.111Z,42.97
2018-05-10T01:46:43.281Z,42.13
2018-05-10T01:47:48.468Z,43.33
2018-05-10T01:48:53.668Z,44.22
2018-05-10T01:49:58.864Z,43.95
2018-05-10T01:51:04.055Z,44.22
2018-05-10T01:52:09.236Z,43.38
2018-05-10T01:53:14.436Z,42.80
2018-05-10T01:54:19.644Z,41.97
2018-05-10T01:55:24.932Z,43.60
2018-05-10T01:56:30.408Z,41.80
2018-05-10T01:57:35.561Z,44.33
2018-05-10T01:58:40.720Z,42.80
2018-05-10T01:59:46.648Z,43.47
2018-05-10T02:00:51.835Z,43.42
2018-05-10T02:01:57.017Z,43.03
2018-05-10T02:03:02.469Z,43.80
2018-05-10T02:04:07.654Z,43.67
2018-05-10T02:05:12.903Z,42.67
2018-05-10T02:06:18.041Z,41.67
2018-05-10T02:07:23.176Z,42.80
2018-05-10T02:08:28.286Z,41.55
2018-05-10T02:09:33.411Z,40.30
2018-05-10T02:10:38.541Z,41.80
2018-05-10T02:11:43.657Z,40.53
2018-05-10T02:12:48.753Z,39.63
2018-05-10T02:13:53.872Z,41.50
2018-05-10T02:14:59.307Z,40.22
2018-05-10T02:16:04.467Z,40.10
2018-05-10T02:17:09.609Z,39.50
2018-05-10T02:18:14.720Z,41.30
2018-05-10T02:19:20.040Z,39.92
2018-05-10T02:20:25.414Z,41.22
2018-05-10T02:21:31.164Z,38.85
2018-05-10T02:22:36.284Z,41.22
2018-05-10T02:23:41.409Z,40.20
2018-05-10T02:24:47.042Z,39.40
2018-05-10T02:25:52.365Z,38.97
2018-05-10T02:26:57.543Z,38.33
2018-05-10T02:28:02.740Z,37.75
2018-05-10T02:29:07.932Z,38.03
2018-05-10T02:30:13.162Z,36.95
2018-05-10T02:31:18.807Z,37.30
2018-05-10T02:32:24.009Z,37.75
2018-05-10T02:33:29.188Z,36.50
2018-05-10T02:34:34.389Z,36.55
2018-05-10T02:35:39.625Z,36.22
2018-05-10T02:36:44.899Z,36.13
2018-05-10T02:37:50.789Z,34.55
2018-05-10T02:38:55.988Z,35.22
2018-05-10T02:40:01.198Z,35.45
2018-05-10T02:41:06.385Z,35.38
2018-05-10T02:42:11.577Z,34.08
2018-05-10T02:43:17.114Z,34.92
2018-05-10T02:44:22.244Z,33.75
2018-05-10T02:45:27.395Z,31.67
2018-05-10T02:46:32.497Z,32.53
2018-05-10T02:47:37.693Z,32.67
2018-05-10T02:48:42.906Z,34.10
2018-05-10T02:49:48.330Z,33.35
2018-05-10T02:50:53.533Z,33.13
2018-05-10T02:51:58.769Z,31.50
2018-05-10T02:53:03.977Z,34.23
2018-05-10T02:54:09.157Z,33.33
2018-05-10T02:55:14.265Z,32.60
2018-05-10T02:56:19.405Z,32.22
2018-05-10T02:57:24.545Z,31.10
2018-05-10T02:58:29.657Z,30.73
2018-05-10T02:59:34.779Z,32.10
2018-05-10T03:00:39.953Z,30.60
2018-05-10T03:01:45.083Z,30.15
2018-05-10T03:02:50.198Z,31.42
2018-05-10T03:03:55.338Z,30.80
2018-05-10T03:05:00.716Z,30.52
2018-05-10T03:06:05.826Z,29.80
2018-05-10T03:07:10.960Z,30.00
2018-05-10T03:08:16.084Z,30.50
2018-05-10T03:09:21.369Z,30.05
2018-05-10T03:10:27.005Z,29.75
2018-05-10T03:11:32.397Z,28.40
2018-05-10T03:12:37.980Z,30.23
2018-05-10T03:13:43.104Z,29.48
2018-05-10T03:14:48.369Z,29.67
2018-05-10T03:15:53.967Z,30.95
2018-05-10T03:16:59.134Z,29.65
2018-05-10T03:18:04.624Z,29.92
2018-05-10T03:19:09.812Z,29.05
2018-05-10T03:20:14.993Z,29.55
2018-05-10T03:21:20.188Z,30.58
2018-05-10T03:22:25.384Z,28.90
2018-05-10T03:23:30.849Z,30.02
2018-05-10T03:24:36.097Z,30.77
2018-05-10T03:25:41.379Z,30.70
2018-05-10T03:26:47.357Z,30.45
2018-05-10T03:27:52.536Z,30.95
2018-05-10T03:28:57.699Z,29.40
2018-05-10T03:30:03.241Z,29.33
2018-05-10T03:31:08.443Z,29.63
2018-05-10T03:32:13.645Z,30.30
2018-05-10T03:33:18.836Z,30.47
2018-05-10T03:34:24.083Z,28.62
2018-05-10T03:35:29.264Z,30.05
2018-05-10T03:36:34.533Z,30.75
2018-05-10T03:37:39.724Z,30.52
2018-05-10T03:38:44.916Z,29.67
2018-05-10T03:39:50.791Z,30.17
2018-05-10T03:40:55.973Z,30.15
2018-05-10T03:42:01.151Z,30.60
2018-05-10T03:43:06.376Z,29.58
2018-05-10T03:44:11.503Z,32.45
2018-05-10T03:45:16.633Z,30.83
2018-05-10T03:46:21.817Z,30.73
2018-05-10T03:47:26.919Z,29.15
2018-05-10T03:48:32.043Z,31.73
2018-05-10T03:50:39.870Z,30.62
2018-05-10T03:51:45.540Z,31.00
2018-05-10T03:52:50.760Z,31.70
2018-05-10T03:53:56.163Z,31.00
2018-05-10T03:55:01.271Z,31.10
2018-05-10T03:56:06.379Z,32.15
2018-05-10T03:57:11.626Z,30.77
2018-05-10T03:58:16.803Z,29.60
2018-05-10T03:59:22.287Z,31.37
2018-05-10T04:00:27.958Z,30.98
2018-05-10T04:01:33.364Z,32.05
2018-05-10T04:02:42.857Z,30.85
2018-05-10T04:03:52.565Z,31.42
2018-05-10T04:05:03.023Z,31.23
2018-05-10T04:06:13.990Z,30.67
2018-05-10T04:07:24.510Z,31.30
2018-05-10T04:10:37.300Z,30.60
2018-05-10T04:11:42.375Z,31.95
2018-05-10T04:12:48.321Z,31.70
2018-05-10T04:13:53.422Z,32.55
2018-05-10T04:14:58.544Z,32.45
2018-05-10T04:16:03.756Z,33.75
2018-05-10T04:17:08.915Z,31.42
2018-05-10T04:18:14.626Z,31.50
2018-05-10T04:19:20.071Z,31.35
2018-05-10T04:20:25.801Z,32.53
2018-05-10T04:21:30.990Z,33.85
2018-05-10T04:22:36.563Z,33.17
2018-05-10T04:23:42.109Z,32.55
2018-05-10T04:24:47.883Z,32.22
2018-05-10T04:25:53.124Z,33.30
2018-05-10T04:26:58.359Z,32.63
2018-05-10T04:28:04.327Z,33.17
2018-05-10T04:29:09.583Z,34.50
2018-05-10T04:30:14.779Z,32.92
2018-05-10T04:31:20.106Z,32.72
2018-05-10T04:32:25.374Z,33.20
2018-05-10T04:33:30.631Z,33.35
2018-05-10T04:34:35.899Z,33.92
2018-05-10T04:35:41.125Z,31.73
2018-05-10T04:36:47.172Z,33.75
2018-05-10T04:37:55.150Z,31.50
2018-05-10T04:39:00.770Z,30.37
2018-05-10T04:40:06.019Z,31.48
2018-05-10T04:41:11.199Z,30.73
2018-05-10T04:42:16.426Z,30.07
2018-05-10T04:43:21.492Z,30.50
2018-05-10T04:44:27.093Z,29.80
2018-05-10T04:45:32.207Z,30.12
2018-05-10T04:46:37.489Z,30.10
2018-05-10T04:47:42.860Z,30.37
2018-05-10T04:48:48.439Z,29.30
2018-05-10T04:49:53.677Z,29.70
2018-05-10T04:50:59.161Z,28.20
2018-05-10T04:52:04.395Z,29.00
2018-05-10T04:53:09.603Z,29.85
2018-05-10T04:54:15.012Z,28.27
2018-05-10T04:55:20.328Z,29.98
2018-05-10T04:56:25.527Z,28.10
2018-05-10T04:57:30.732Z,27.05
2018-05-10T04:58:35.938Z,27.75
2018-05-10T04:59:41.153Z,27.25
2018-05-10T05:00:47.037Z,27.58
2018-05-10T05:01:52.277Z,27.50
2018-05-10T05:02:57.497Z,25.85
2018-05-10T05:04:02.678Z,26.58
2018-05-10T05:05:07.893Z,26.08
2018-05-10T05:06:13.019Z,27.20
2018-05-10T05:07:18.170Z,24.98
2018-05-10T05:08:23.282Z,27.08
2018-05-10T05:09:28.401Z,27.20
2018-05-10T05:10:33.526Z,25.52
2018-05-10T05:11:38.649Z,25.05
2018-05-10T05:12:43.782Z,26.80
2018-05-10T05:13:48.973Z,24.23
2018-05-10T05:14:54.351Z,25.05
2018-05-10T05:15:59.478Z,24.35
2018-05-10T05:17:04.616Z,24.05
2018-05-10T05:18:09.710Z,23.17
2018-05-10T05:19:14.873Z,26.30
2018-05-10T05:20:20.150Z,23.33
2018-05-10T05:21:25.438Z,23.30
2018-05-10T05:22:30.608Z,22.17
2018-05-10T05:23:35.878Z,23.90
2018-05-10T05:24:41.072Z,22.15
2018-05-10T05:25:47.069Z,23.65
2018-05-10T05:26:52.562Z,22.80
2018-05-10T05:27:57.741Z,22.77
2018-05-10T05:29:02.927Z,21.33
2018-05-10T05:30:08.126Z,22.10
2018-05-10T05:31:13.235Z,21.80
2018-05-10T05:32:18.331Z,21.87
2018-05-10T05:33:23.537Z,20.95
2018-05-10T05:34:28.663Z,21.00
2018-05-10T05:35:33.830Z,23.85
2018-05-10T05:36:38.981Z,21.08
2018-05-10T05:37:44.393Z,19.45
2018-05-10T05:38:49.773Z,19.23
2018-05-10T05:39:54.855Z,19.83
2018-05-10T05:41:00.250Z,18.77
2018-05-10T05:42:05.409Z,19.27
2018-05-10T05:43:10.609Z,18.50
2018-05-10T05:44:15.813Z,17.15
2018-05-10T05:45:21.349Z,18.83
2018-05-10T05:46:26.683Z,18.58
2018-05-10T05:47:31.815Z,18.27
2018-05-10T05:48:37.159Z,17.77
2018-05-10T05:49:42.268Z,17.10
2018-05-10T05:50:48.425Z,17.60
2018-05-10T05:51:53.568Z,18.00
2018-05-10T05:52:59.355Z,17.95
2018-05-10T05:54:04.519Z,18.92
2018-05-10T05:55:09.628Z,17.48
2018-05-10T05:56:14.763Z,18.27
2018-05-10T05:57:20.160Z,18.20
2018-05-10T05:58:25.339Z,19.00
2018-05-10T05:59:30.447Z,20.20
2018-05-10T06:00:35.680Z,18.58
2018-05-10T06:01:41.032Z,18.87
2018-05-10T06:02:46.873Z,21.42
2018-05-10T06:03:52.670Z,22.08
2018-05-10T06:04:57.857Z,22.10
2018-05-10T06:06:03.081Z,22.75
2018-05-10T06:07:08.338Z,20.48
2018-05-10T06:08:13.543Z,21.73
2018-05-10T06:09:18.746Z,22.53
2018-05-10T06:10:23.844Z,24.67
2018-05-10T06:11:29.048Z,31.08
2018-05-10T06:12:34.181Z,24.73
2018-05-10T06:13:39.483Z,24.20
2018-05-10T06:14:44.584Z,25.40
2018-05-10T06:15:50.252Z,24.52
2018-05-10T06:16:55.574Z,24.77
2018-05-10T06:18:00.695Z,26.75
2018-05-10T06:19:05.799Z,26.52
2018-05-10T06:20:11.043Z,26.62
2018-05-10T06:21:16.248Z,28.20
2018-05-10T06:22:21.451Z,26.17
2018-05-10T06:23:27.007Z,26.37
2018-05-10T06:24:32.601Z,27.60
2018-05-10T06:25:37.812Z,26.85
2018-05-10T06:26:43.106Z,29.25
2018-05-10T06:27:48.642Z,30.25
2018-05-10T06:28:54.070Z,28.10
2018-05-10T06:29:59.578Z,27.87
2018-05-10T06:31:04.709Z,28.12
2018-05-10T06:32:10.077Z,28.30
2018-05-10T06:33:15.252Z,28.00
2018-05-10T06:34:20.677Z,27.35
2018-05-10T06:35:26.076Z,28.40
2018-05-10T06:36:31.220Z,31.27
2018-05-10T06:37:36.342Z,29.15
2018-05-10T06:38:41.475Z,29.23
2018-05-10T06:39:47.619Z,29.17
2018-05-10T06:40:52.798Z,29.10
2018-05-10T06:41:58.224Z,30.80
2018-05-10T06:43:03.348Z,30.35
2018-05-10T06:44:08.521Z,29.37
2018-05-10T06:45:13.634Z,31.12
2018-05-10T06:46:18.762Z,30.05
2018-05-10T06:47:23.919Z,29.58
2018-05-10T06:48:29.060Z,29.83
2018-05-10T06:49:34.194Z,29.80
2018-05-10T06:50:39.292Z,30.83
2018-05-10T06:51:44.396Z,30.75
2018-05-10T06:52:49.521Z,30.23
2018-05-10T06:53:54.649Z,28.67
2018-05-10T06:54:59.821Z,27.45
2018-05-10T06:56:05.109Z,27.25
2018-05-10T06:57:10.342Z,26.62
2018-05-10T06:58:15.622Z,27.90
2018-05-10T06:59:21.021Z,26.42
2018-05-10T07:00:26.230Z,26.77
2018-05-10T07:01:31.376Z,26.52
2018-05-10T07:02:36.508Z,26.73
2018-05-10T07:03:41.699Z,25.30
2018-05-10T07:04:46.892Z,25.92
2018-05-10T07:05:52.364Z,25.62
2018-05-10T07:06:57.578Z,25.45
2018-05-10T07:08:02.772Z,24.90
2018-05-10T07:09:07.969Z,26.93
2018-05-10T07:10:13.131Z,25.97
2018-05-10T07:11:18.336Z,26.73
2018-05-10T07:12:23.458Z,25.53
2018-05-10T07:13:28.624Z,24.20
2018-05-10T07:14:33.766Z,23.67
2018-05-10T07:15:38.931Z,25.23
2018-05-10T07:16:44.174Z,23.90
2018-05-10T07:17:49.674Z,23.67
2018-05-10T07:18:54.964Z,23.77
2018-05-10T07:20:00.181Z,23.48
2018-05-10T07:21:05.642Z,22.37
2018-05-10T07:22:10.879Z,24.00
2018-05-10T07:23:16.075Z,24.45
2018-05-10T07:24:21.555Z,23.90
2018-05-10T07:25:26.778Z,24.40
2018-05-10T07:26:31.917Z,24.43
2018-05-10T07:27:37.056Z,23.80
2018-05-10T07:28:42.255Z,23.27
2018-05-10T07:29:47.821Z,21.47
2018-05-10T07:30:53.063Z,21.73
2018-05-10T07:31:58.273Z,21.85
2018-05-10T07:33:03.526Z,21.27
2018-05-10T07:34:08.752Z,20.52
2018-05-10T07:35:13.967Z,21.30
2018-05-10T07:36:19.443Z,22.23
2018-05-10T07:37:24.742Z,22.20
2018-05-10T07:38:29.952Z,20.77
2018-05-10T07:39:35.141Z,20.53
2018-05-10T07:40:40.399Z,20.45
2018-05-10T07:41:45.616Z,20.27
2018-05-10T07:42:50.832Z,20.15
2018-05-10T07:43:55.986Z,21.23
2018-05-10T07:45:01.129Z,18.87
2018-05-10T07:46:06.252Z,19.37
2018-05-10T07:47:11.437Z,19.10
2018-05-10T07:48:16.639Z,19.37
2018-05-10T07:49:21.859Z,19.23
2018-05-10T07:50:27.039Z,19.98
2018-05-10T07:51:32.208Z,18.52
2018-05-10T07:52:37.442Z,19.25
2018-05-10T07:53:42.623Z,20.15
2018-05-10T07:54:47.825Z,19.92
2018-05-10T07:55:53.321Z,20.10
2018-05-10T07:56:58.518Z,19.02
2018-05-10T07:58:03.732Z,20.48
2018-05-10T07:59:08.939Z,20.92
2018-05-10T08:00:14.249Z,20.37
2018-05-10T08:01:19.734Z,21.02
2018-05-10T08:02:25.043Z,20.48
2018-05-10T08:03:30.236Z,21.48
2018-05-10T08:04:35.574Z,22.30
2018-05-10T08:05:40.832Z,23.15
2018-05-10T08:06:45.956Z,22.20
2018-05-10T08:07:51.384Z,23.62
2018-05-10T08:08:56.593Z,23.25
2018-05-10T08:10:01.831Z,23.60
2018-05-10T08:11:06.944Z,25.55
2018-05-10T08:12:12.259Z,24.92
2018-05-10T08:13:17.679Z,24.67
2018-05-10T08:14:22.949Z,24.73
2018-05-10T08:15:28.161Z,23.70
2018-05-10T08:16:33.416Z,23.30
2018-05-10T08:17:38.685Z,24.83
2018-05-10T08:18:43.872Z,24.17
2018-05-10T08:19:49.241Z,24.52
2018-05-10T08:20:54.533Z,24.52
2018-05-10T08:21:59.659Z,23.80
2018-05-10T08:23:04.880Z,24.90
2018-05-10T08:24:10.032Z,23.77
2018-05-10T08:25:15.264Z,22.90
2018-05-10T08:26:20.420Z,23.50
2018-05-10T08:27:29.965Z,22.45
2018-05-10T08:28:35.140Z,23.55
2018-05-10T08:29:41.952Z,23.12
2018-05-10T08:30:47.071Z,22.90
2018-05-10T08:31:52.281Z,23.33
2018-05-10T08:32:57.493Z,22.77
2018-05-10T08:34:02.699Z,22.85
2018-05-10T08:35:07.907Z,21.75
2018-05-10T08:36:13.131Z,20.80
2018-05-10T08:37:18.324Z,20.45
2018-05-10T08:38:23.552Z,20.00
2018-05-10T08:39:28.788Z,20.88
2018-05-10T08:40:34.009Z,18.60
2018-05-10T08:41:39.209Z,19.83
2018-05-10T08:42:44.620Z,17.05
2018-05-10T08:43:49.817Z,18.02
2018-05-10T08:44:54.982Z,15.15
2018-05-10T08:46:00.270Z,13.52
2018-05-10T08:47:05.538Z,12.77
2018-05-10T08:48:10.708Z,12.63
2018-05-10T08:49:16.119Z,10.45
2018-05-10T08:50:21.217Z,9.80
2018-05-10T08:51:26.442Z,8.95
2018-05-10T08:52:31.634Z,9.13
2018-05-10T08:53:36.912Z,8.57
2018-05-10T08:54:42.439Z,9.50
2018-05-10T08:55:47.712Z,9.93
2018-05-10T08:56:52.910Z,9.02
2018-05-10T08:57:58.088Z,11.90
2018-05-10T08:59:03.307Z,13.40
2018-05-10T09:00:08.482Z,16.42
2018-05-10T09:01:13.900Z,14.70
2018-05-10T09:02:19.097Z,15.68
2018-05-10T09:03:24.292Z,14.23
2018-05-10T09:04:29.507Z,14.00
2018-05-10T09:05:34.623Z,13.60
2018-05-10T09:06:40.032Z,13.62
2018-05-10T09:07:45.205Z,15.45
2018-05-10T09:08:50.371Z,18.33
2018-05-10T09:09:55.525Z,23.73
2018-05-10T09:11:00.713Z,16.73
2018-05-10T09:12:05.873Z,13.77
2018-05-10T09:13:11.438Z,14.75
2018-05-10T09:17:28.418Z,15.00
2018-05-10T09:18:33.720Z,23.23
2018-05-10T09:19:38.860Z,17.40
2018-05-10T09:20:44.098Z,13.35
2018-05-10T09:21:49.341Z,12.98
2018-05-10T09:22:54.566Z,14.95
2018-05-10T09:23:59.787Z,12.70
2018-05-10T09:25:05.301Z,12.55
2018-05-10T09:26:10.536Z,15.27
2018-05-10T09:27:15.763Z,6.05
2018-05-10T09:28:20.973Z,8.38
2018-05-10T09:29:26.099Z,7.55
2018-05-10T09:30:31.254Z,7.90
2018-05-10T09:31:36.776Z,7.97
2018-05-10T09:32:41.827Z,5.55
2018-05-10T09:33:47.000Z,7.37
2018-05-10T09:34:52.176Z,4.95
2018-05-10T09:36:02.465Z,6.82
2018-05-10T09:37:07.980Z,6.20
2018-05-10T09:38:13.194Z,6.70
2018-05-10T09:39:18.434Z,5.40
2018-05-10T09:40:23.634Z,4.40
2018-05-10T09:41:28.849Z,4.80
2018-05-10T09:42:34.174Z,4.68
2018-05-10T09:43:39.584Z,4.47
2018-05-10T09:44:44.718Z,4.40
2018-05-10T09:45:49.940Z,4.22
2018-05-10T09:46:55.064Z,2.83
2018-05-10T09:48:00.214Z,3.30
2018-05-10T09:49:05.857Z,2.80
2018-05-10T09:50:11.049Z,2.50
2018-05-10T09:51:16.280Z,3.10
2018-05-10T09:52:21.508Z,3.03
2018-05-10T09:53:26.775Z,3.30
2018-05-10T09:54:32.447Z,3.10
2018-05-10T09:55:37.937Z,3.10
2018-05-10T09:56:43.116Z,2.77
2018-05-10T09:57:48.327Z,2.80
2018-05-10T09:58:53.551Z,2.60
2018-05-10T09:59:58.820Z,2.62
2018-05-10T10:01:03.964Z,2.50
2018-05-10T10:02:09.158Z,3.03
2018-05-10T10:03:14.375Z,2.83
2018-05-10T10:04:19.680Z,2.97
2018-05-10T10:05:24.946Z,28.23
2018-05-10T10:06:30.127Z,8.82
2018-05-10T10:07:35.560Z,3.80
2018-05-10T10:08:40.691Z,3.45
2018-05-10T10:09:45.825Z,2.70
2018-05-10T10:10:50.986Z,4.10
2018-05-10T10:11:56.153Z,4.07
2018-05-10T10:13:01.326Z,4.37
2018-05-10T10:14:06.854Z,3.90
2018-05-10T10:15:12.127Z,3.80
2018-05-10T10:16:17.312Z,4.20
2018-05-10T10:17:22.500Z,3.65
2018-05-10T10:18:30.416Z,3.67
2018-05-10T10:19:35.951Z,7.45
2018-05-10T10:20:41.161Z,7.72
2018-05-10T10:21:46.668Z,4.10
2018-05-10T10:22:51.864Z,3.80
2018-05-10T10:23:57.073Z,3.12
2018-05-10T10:25:02.311Z,3.72
2018-05-10T10:26:07.785Z,3.45
2018-05-10T10:27:13.011Z,4.00
2018-05-10T10:28:18.248Z,3.62
2018-05-10T10:29:23.458Z,4.20
2018-05-10T10:30:28.667Z,3.00
2018-05-10T10:31:34.188Z,4.07
2018-05-10T10:32:39.685Z,24.13
2018-05-10T10:33:44.939Z,7.25
2018-05-10T10:34:50.279Z,13.07
2018-05-10T10:36:26.038Z,3.70
2018-05-10T10:37:31.153Z,3.87
2018-05-10T10:38:36.304Z,3.58
2018-05-10T10:39:41.455Z,4.10
2018-05-10T10:40:46.597Z,3.42
2018-05-10T10:41:51.794Z,3.37
2018-05-10T10:42:56.997Z,2.90
2018-05-10T10:44:02.271Z,9.65
2018-05-10T10:45:07.643Z,4.20
2018-05-10T10:46:12.812Z,3.17
2018-05-10T10:47:17.995Z,3.03
2018-05-10T10:48:23.323Z,5.67
2018-05-10T10:49:28.578Z,3.65
2018-05-10T10:50:34.064Z,3.20
2018-05-10T10:51:39.233Z,3.80
2018-05-10T10:52:45.489Z,6.53
2018-05-10T10:53:50.788Z,3.72
2018-05-10T10:54:55.914Z,3.50
2018-05-10T10:56:01.391Z,3.90
2018-05-10T10:57:06.515Z,4.28
2018-05-10T10:58:11.611Z,8.85
2018-05-10T10:59:16.756Z,10.45
2018-05-10T11:00:21.881Z,10.77
2018-05-10T11:01:27.016Z,11.93
2018-05-10T11:02:32.639Z,12.15
2018-05-10T11:03:37.917Z,10.63
2018-05-10T11:04:43.155Z,6.90
2018-05-10T11:05:48.365Z,7.55
2018-05-10T11:06:53.586Z,10.77
2018-05-10T11:07:59.135Z,11.27
2018-05-10T11:09:04.723Z,14.98
2018-05-10T11:10:09.973Z,9.90
2018-05-10T11:11:15.224Z,12.07
2018-05-10T11:12:20.425Z,10.50
2018-05-10T11:13:25.680Z,9.00
2018-05-10T11:14:31.230Z,10.55
2018-05-10T11:15:36.979Z,10.70
2018-05-10T11:16:42.256Z,11.23
2018-05-10T11:17:47.481Z,12.18
2018-05-10T11:18:52.714Z,11.82
2018-05-10T11:19:57.934Z,12.63
2018-05-10T11:21:03.147Z,11.07
2018-05-10T11:22:08.398Z,11.25
2018-05-10T11:23:13.633Z,11.35
2018-05-10T11:24:18.835Z,10.25
2018-05-10T11:25:24.064Z,10.55
2018-05-10T11:26:29.285Z,9.93
2018-05-10T11:27:34.533Z,10.50
2018-05-10T11:28:39.776Z,9.85
2018-05-10T11:29:44.896Z,9.20
2018-05-10T11:30:50.051Z,69.93
2018-05-10T11:31:55.179Z,14.75
2018-05-10T11:33:00.382Z,10.27
2018-05-10T11:34:05.556Z,9.95
2018-05-10T11:35:10.731Z,10.38
2018-05-10T11:36:15.981Z,10.18
2018-05-10T11:37:21.104Z,11.27
2018-05-10T11:38:26.562Z,10.30
2018-05-10T11:39:31.712Z,12.43
2018-05-10T11:40:36.942Z,12.23
2018-05-10T11:41:42.195Z,10.37
2018-05-10T11:42:47.417Z,11.50
2018-05-10T11:43:52.651Z,10.18
2018-05-10T11:44:58.147Z,9.65
2018-05-10T11:46:03.413Z,16.55
2018-05-10T11:47:08.641Z,14.82
2018-05-10T11:48:13.836Z,19.90
2018-05-10T11:49:18.975Z,19.73
2018-05-10T11:50:24.392Z,20.77
2018-05-10T11:51:29.537Z,31.48
2018-05-10T11:52:34.824Z,25.55
2018-05-10T11:53:40.011Z,25.48
2018-05-10T11:54:45.147Z,18.65
2018-05-10T11:55:50.305Z,15.00
2018-05-10T11:56:55.740Z,14.73
2018-05-10T11:58:00.960Z,15.93
2018-05-10T11:59:06.103Z,14.65
2018-05-10T12:00:11.275Z,16.30
2018-05-10T12:01:16.428Z,13.93
2018-05-10T12:02:21.902Z,15.05
2018-05-10T12:03:27.068Z,14.20
2018-05-10T12:04:32.462Z,15.52
2018-05-10T12:05:37.647Z,14.63
2018-05-10T12:06:42.794Z,14.57
2018-05-10T12:07:47.917Z,15.93
2018-05-10T12:08:53.428Z,16.37
2018-05-10T12:09:58.548Z,18.08
2018-05-10T12:11:03.715Z,18.77
2018-05-10T12:12:08.837Z,18.42
2018-05-10T12:13:14.038Z,18.87
2018-05-10T12:14:19.176Z,18.23
2018-05-10T12:15:24.328Z,19.08
2018-05-10T12:16:29.485Z,30.88
2018-05-10T12:17:34.616Z,19.48
2018-05-10T12:18:39.830Z,19.33
2018-05-10T12:19:45.054Z,18.95
2018-05-10T12:20:50.277Z,19.52
2018-05-10T12:21:55.490Z,17.65
2018-05-10T12:23:00.702Z,19.10
2018-05-10T12:24:05.944Z,21.25
2018-05-10T12:25:11.148Z,19.30
2018-05-10T12:26:16.447Z,18.62
2018-05-10T12:27:21.733Z,18.40
2018-05-10T12:28:27.246Z,17.20
2018-05-10T12:29:32.533Z,18.42
2018-05-10T12:30:37.764Z,17.73
2018-05-10T12:31:43.049Z,17.27
2018-05-10T12:32:48.273Z,18.00
2018-05-10T12:33:53.764Z,17.60
2018-05-10T12:34:58.958Z,18.20
2018-05-10T12:36:04.300Z,22.30
2018-05-10T12:37:09.453Z,44.65
2018-05-10T12:38:14.645Z,34.60
2018-05-10T12:39:19.756Z,32.08
2018-05-10T12:40:24.877Z,28.02
2018-05-10T12:41:29.986Z,28.10
2018-05-10T12:42:35.128Z,28.17
2018-05-10T12:43:40.224Z,29.73
2018-05-10T12:44:45.906Z,24.33
2018-05-10T12:45:51.173Z,21.65
2018-05-10T12:46:56.301Z,22.48
2018-05-10T12:48:01.477Z,21.05
2018-05-10T12:49:06.655Z,22.00
2018-05-10T12:50:11.842Z,20.05
2018-05-10T12:51:17.020Z,20.55
2018-05-10T12:52:22.237Z,21.02
2018-05-10T12:53:27.408Z,20.50
2018-05-10T12:54:32.555Z,19.15
2018-05-10T12:55:37.694Z,20.12
2018-05-10T12:56:42.909Z,20.37
2018-05-10T12:57:48.143Z,19.42
2018-05-10T12:58:53.412Z,19.00
2018-05-10T13:00:02.290Z,21.33
2018-05-10T13:01:07.521Z,18.48
2018-05-10T13:02:12.759Z,21.30
2018-05-10T13:03:18.152Z,20.25
2018-05-10T13:04:23.394Z,18.40
2018-05-10T13:05:28.607Z,18.85
2018-05-10T13:06:33.899Z,18.92
2018-05-10T13:07:39.093Z,17.77
2018-05-10T13:08:44.334Z,18.65
2018-05-10T13:09:49.555Z,17.67
2018-05-10T13:10:55.083Z,17.50
2018-05-10T13:12:00.324Z,16.98
2018-05-10T13:13:05.549Z,18.17
2018-05-10T13:14:10.939Z,17.52
2018-05-10T13:15:16.170Z,18.77
2018-05-10T13:16:21.451Z,18.75
2018-05-10T13:17:26.960Z,17.40
2018-05-10T13:18:32.172Z,16.77
2018-05-10T13:19:37.577Z,25.27
2018-05-10T13:20:42.779Z,37.47
2018-05-10T13:21:48.091Z,27.13
2018-05-10T13:22:53.272Z,21.08
2018-05-10T13:23:58.446Z,19.05
2018-05-10T13:25:03.696Z,23.05
2018-05-10T13:26:09.898Z,31.75
2018-05-10T13:27:15.081Z,31.00
2018-05-10T13:28:20.269Z,36.35
2018-05-10T13:29:25.793Z,58.55
2018-05-10T13:30:30.972Z,34.85
2018-05-10T13:31:36.136Z,25.75
2018-05-10T13:32:41.331Z,25.67
2018-05-10T13:33:46.456Z,44.08
2018-05-10T13:34:51.574Z,35.25
2018-05-10T13:35:57.009Z,25.88
2018-05-10T13:37:02.145Z,22.30
2018-05-10T13:38:07.302Z,21.80
2018-05-10T13:39:12.458Z,29.37
2018-05-10T13:40:17.723Z,23.33
2018-05-10T13:41:23.271Z,22.83
2018-05-10T13:42:28.481Z,21.35
2018-05-10T13:43:33.712Z,18.45
2018-05-10T13:44:39.025Z,19.70
2018-05-10T13:45:44.297Z,18.75
2018-05-10T13:46:49.767Z,19.95
2018-05-10T13:47:55.269Z,18.95
2018-05-10T13:49:00.475Z,19.70
2018-05-10T13:50:05.616Z,20.75
2018-05-10T13:51:11.431Z,20.90
2018-05-10T13:52:16.592Z,20.10
2018-05-10T13:53:22.047Z,18.80
2018-05-10T13:54:27.188Z,19.00
2018-05-10T13:55:32.396Z,19.30
2018-05-10T13:56:37.807Z,19.20
2018-05-10T13:57:42.941Z,19.25
2018-05-10T13:58:48.166Z,18.58
2018-05-10T13:59:53.779Z,20.65
2018-05-10T14:00:58.916Z,20.60
2018-05-10T14:02:04.139Z,19.62
2018-05-10T14:03:09.376Z,19.20
2018-05-10T14:04:14.612Z,19.83
2018-05-10T14:05:19.872Z,19.83
2018-05-10T14:06:25.194Z,19.43
2018-05-10T14:07:30.585Z,21.33
2018-05-10T14:08:35.879Z,20.55
2018-05-10T14:09:41.112Z,18.48
2018-05-10T14:10:46.532Z,21.70
2018-05-10T14:11:52.228Z,62.20